sensor_id;sensor_type;location;lat;lon;timestamp;P1;durP1;ratioP1;P2;durP2;ratioP2
49460;SDS011;35355;49.198;-0.368;2024-03-25T00:01:24;13.60;;;3.45;;
49460;SDS011;35355;49.198;-0.368;2024-03-25T00:03:50;12.32;;;2.83;;
49460;SDS011;35355;49.198;-0.368;2024-03-25T00:06:15;14.25;;;3.00;;
49460;SDS011;35355;49.198;-0.368;2024-03-25T00:08:41;11.23;;;2.40;;
49460;SDS011;35355;49.198;-0.368;2024-03-25T00:11:07;18.35;;;4.57;;
49460;SDS011;35355;49.198;-0.368;2024-03-25T00:13:32;9.95;;;2.25;;
49460;SDS011;35355;49.198;-0.368;2024-03-25T00:15:57;12.70;;;3.03;;
49460;SDS011;35355;49.198;-0.368;2024-03-25T00:18:23;13.05;;;2.15;;
49460;SDS011;35355;49.198;-0.368;2024-03-25T00:20:48;16.33;;;2.67;;
49460;SDS011;35355;49.198;-0.368;2024-03-25T00:23:13;8.05;;;3.05;;
49460;SDS011;35355;49.198;-0.368;2024-03-25T00:25:40;14.20;;;3.53;;
49460;SDS011;35355;49.198;-0.368;2024-03-25T00:28:05;12.35;;;2.20;;
49460;SDS011;35355;49.198;-0.368;2024-03-25T00:30:30;16.13;;;2.63;;
49460;SDS011;35355;49.198;-0.368;2024-03-25T00:32:56;11.65;;;2.55;;
49460;SDS011;35355;49.198;-0.368;2024-03-25T00:35:21;13.98;;;2.85;;
49460;SDS011;35355;49.198;-0.368;2024-03-25T00:37:46;10.05;;;2.58;;
49460;SDS011;35355;49.198;-0.368;2024-03-25T00:40:12;10.43;;;2.20;;
49460;SDS011;35355;49.198;-0.368;2024-03-25T00:42:37;13.48;;;2.63;;
49460;SDS011;35355;49.198;-0.368;2024-03-25T00:45:03;14.18;;;2.75;;
49460;SDS011;35355;49.198;-0.368;2024-03-25T00:47:30;15.88;;;2.88;;
49460;SDS011;35355;49.198;-0.368;2024-03-25T00:49:56;13.55;;;2.88;;
49460;SDS011;35355;49.198;-0.368;2024-03-25T00:52:21;14.98;;;2.90;;
49460;SDS011;35355;49.198;-0.368;2024-03-25T00:54:46;22.17;;;3.33;;
49460;SDS011;35355;49.198;-0.368;2024-03-25T00:57:12;17.73;;;4.05;;
49460;SDS011;35355;49.198;-0.368;2024-03-25T00:59:37;20.15;;;4.25;;
49460;SDS011;35355;49.198;-0.368;2024-03-25T01:02:04;11.45;;;2.45;;
49460;SDS011;35355;49.198;-0.368;2024-03-25T01:04:29;14.48;;;3.70;;
49460;SDS011;35355;49.198;-0.368;2024-03-25T01:06:54;13.00;;;2.53;;
49460;SDS011;35355;49.198;-0.368;2024-03-25T01:09:20;16.52;;;3.13;;
49460;SDS011;35355;49.198;-0.368;2024-03-25T01:11:46;15.10;;;2.60;;
49460;SDS011;35355;49.198;-0.368;2024-03-25T01:14:12;8.95;;;2.70;;
49460;SDS011;35355;49.198;-0.368;2024-03-25T01:16:37;9.40;;;2.20;;
49460;SDS011;35355;49.198;-0.368;2024-03-25T01:19:03;13.88;;;3.75;;
49460;SDS011;35355;49.198;-0.368;2024-03-25T01:21:28;9.20;;;2.60;;
49460;SDS011;35355;49.198;-0.368;2024-03-25T01:23:55;18.77;;;2.70;;
49460;SDS011;35355;49.198;-0.368;2024-03-25T01:26:20;17.90;;;3.38;;
49460;SDS011;35355;49.198;-0.368;2024-03-25T01:28:45;12.85;;;2.35;;
49460;SDS011;35355;49.198;-0.368;2024-03-25T01:31:11;11.70;;;2.58;;
49460;SDS011;35355;49.198;-0.368;2024-03-25T01:33:36;9.82;;;3.33;;
49460;SDS011;35355;49.198;-0.368;2024-03-25T01:36:02;16.55;;;3.30;;
49460;SDS011;35355;49.198;-0.368;2024-03-25T01:38:27;14.90;;;2.83;;
49460;SDS011;35355;49.198;-0.368;2024-03-25T01:40:53;16.23;;;3.05;;
49460;SDS011;35355;49.198;-0.368;2024-03-25T01:43:18;10.38;;;3.13;;
49460;SDS011;35355;49.198;-0.368;2024-03-25T01:45:44;12.38;;;3.40;;
49460;SDS011;35355;49.198;-0.368;2024-03-25T01:48:10;10.50;;;2.97;;
49460;SDS011;35355;49.198;-0.368;2024-03-25T01:50:39;10.52;;;3.10;;
49460;SDS011;35355;49.198;-0.368;2024-03-25T01:53:08;13.88;;;3.80;;
49460;SDS011;35355;49.198;-0.368;2024-03-25T01:55:34;14.25;;;3.55;;
49460;SDS011;35355;49.198;-0.368;2024-03-25T01:58:01;7.93;;;2.80;;
49460;SDS011;35355;49.198;-0.368;2024-03-25T02:00:28;10.70;;;2.88;;
49460;SDS011;35355;49.198;-0.368;2024-03-25T02:02:54;11.02;;;3.22;;
49460;SDS011;35355;49.198;-0.368;2024-03-25T02:05:20;16.85;;;4.65;;
49460;SDS011;35355;49.198;-0.368;2024-03-25T02:07:46;12.55;;;3.72;;
49460;SDS011;35355;49.198;-0.368;2024-03-25T02:10:13;13.80;;;3.13;;
49460;SDS011;35355;49.198;-0.368;2024-03-25T02:12:42;12.25;;;3.70;;
49460;SDS011;35355;49.198;-0.368;2024-03-25T02:15:09;14.30;;;3.33;;
49460;SDS011;35355;49.198;-0.368;2024-03-25T02:17:35;12.45;;;3.88;;
49460;SDS011;35355;49.198;-0.368;2024-03-25T02:20:01;15.38;;;3.90;;
49460;SDS011;35355;49.198;-0.368;2024-03-25T02:22:40;9.82;;;3.95;;
49460;SDS011;35355;49.198;-0.368;2024-03-25T02:25:06;12.35;;;3.97;;
49460;SDS011;35355;49.198;-0.368;2024-03-25T02:27:36;9.40;;;2.78;;
49460;SDS011;35355;49.198;-0.368;2024-03-25T02:30:09;9.95;;;3.08;;
49460;SDS011;35355;49.198;-0.368;2024-03-25T02:32:39;18.50;;;3.00;;
49460;SDS011;35355;49.198;-0.368;2024-03-25T02:35:05;19.58;;;3.65;;
49460;SDS011;35355;49.198;-0.368;2024-03-25T02:37:35;16.95;;;4.25;;
49460;SDS011;35355;49.198;-0.368;2024-03-25T02:40:01;15.85;;;3.88;;
49460;SDS011;35355;49.198;-0.368;2024-03-25T02:42:30;12.70;;;2.83;;
49460;SDS011;35355;49.198;-0.368;2024-03-25T02:44:56;16.13;;;3.17;;
49460;SDS011;35355;49.198;-0.368;2024-03-25T02:47:22;11.40;;;2.97;;
49460;SDS011;35355;49.198;-0.368;2024-03-25T02:49:47;7.70;;;2.28;;
49460;SDS011;35355;49.198;-0.368;2024-03-25T02:52:12;9.27;;;2.63;;
49460;SDS011;35355;49.198;-0.368;2024-03-25T02:54:38;16.45;;;3.63;;
49460;SDS011;35355;49.198;-0.368;2024-03-25T02:57:03;13.35;;;3.88;;
49460;SDS011;35355;49.198;-0.368;2024-03-25T02:59:29;17.33;;;2.42;;
49460;SDS011;35355;49.198;-0.368;2024-03-25T03:01:54;11.85;;;2.13;;
49460;SDS011;35355;49.198;-0.368;2024-03-25T03:04:19;12.50;;;2.55;;
49460;SDS011;35355;49.198;-0.368;2024-03-25T03:06:45;6.93;;;1.95;;
49460;SDS011;35355;49.198;-0.368;2024-03-25T03:09:10;16.17;;;4.40;;
49460;SDS011;35355;49.198;-0.368;2024-03-25T03:11:35;15.82;;;3.28;;
49460;SDS011;35355;49.198;-0.368;2024-03-25T03:14:01;15.88;;;2.40;;
49460;SDS011;35355;49.198;-0.368;2024-03-25T03:16:26;13.63;;;2.75;;
49460;SDS011;35355;49.198;-0.368;2024-03-25T03:18:51;9.07;;;2.30;;
49460;SDS011;35355;49.198;-0.368;2024-03-25T03:21:17;7.80;;;2.13;;
49460;SDS011;35355;49.198;-0.368;2024-03-25T03:23:42;12.00;;;2.80;;
49460;SDS011;35355;49.198;-0.368;2024-03-25T03:26:07;12.82;;;2.38;;
49460;SDS011;35355;49.198;-0.368;2024-03-25T03:28:33;14.60;;;2.65;;
49460;SDS011;35355;49.198;-0.368;2024-03-25T03:30:58;15.32;;;2.88;;
49460;SDS011;35355;49.198;-0.368;2024-03-25T03:33:23;11.07;;;2.70;;
49460;SDS011;35355;49.198;-0.368;2024-03-25T03:35:49;9.80;;;2.95;;
49460;SDS011;35355;49.198;-0.368;2024-03-25T03:38:14;10.13;;;2.60;;
49460;SDS011;35355;49.198;-0.368;2024-03-25T03:40:40;14.07;;;2.55;;
49460;SDS011;35355;49.198;-0.368;2024-03-25T03:43:05;10.98;;;2.28;;
49460;SDS011;35355;49.198;-0.368;2024-03-25T03:45:32;7.88;;;2.83;;
49460;SDS011;35355;49.198;-0.368;2024-03-25T03:47:58;11.35;;;2.38;;
49460;SDS011;35355;49.198;-0.368;2024-03-25T03:50:24;9.05;;;2.33;;
49460;SDS011;35355;49.198;-0.368;2024-03-25T03:52:49;17.50;;;3.75;;
49460;SDS011;35355;49.198;-0.368;2024-03-25T03:55:14;15.57;;;3.50;;
49460;SDS011;35355;49.198;-0.368;2024-03-25T03:57:40;10.90;;;2.80;;
49460;SDS011;35355;49.198;-0.368;2024-03-25T04:00:07;7.35;;;2.38;;
49460;SDS011;35355;49.198;-0.368;2024-03-25T04:02:34;9.18;;;2.80;;
49460;SDS011;35355;49.198;-0.368;2024-03-25T04:04:59;19.35;;;4.30;;
49460;SDS011;35355;49.198;-0.368;2024-03-25T04:07:25;10.13;;;2.20;;
49460;SDS011;35355;49.198;-0.368;2024-03-25T04:09:53;10.88;;;1.98;;
49460;SDS011;35355;49.198;-0.368;2024-03-25T04:12:19;11.80;;;2.20;;
49460;SDS011;35355;49.198;-0.368;2024-03-25T04:14:46;11.35;;;2.10;;
49460;SDS011;35355;49.198;-0.368;2024-03-25T04:17:12;9.98;;;2.40;;
49460;SDS011;35355;49.198;-0.368;2024-03-25T04:19:37;9.18;;;2.10;;
49460;SDS011;35355;49.198;-0.368;2024-03-25T04:22:02;6.00;;;1.95;;
49460;SDS011;35355;49.198;-0.368;2024-03-25T04:24:28;11.10;;;2.03;;
49460;SDS011;35355;49.198;-0.368;2024-03-25T04:26:53;11.95;;;2.67;;
49460;SDS011;35355;49.198;-0.368;2024-03-25T04:29:19;12.68;;;2.85;;
49460;SDS011;35355;49.198;-0.368;2024-03-25T04:31:45;11.40;;;2.47;;
49460;SDS011;35355;49.198;-0.368;2024-03-25T04:34:10;12.75;;;2.08;;
49460;SDS011;35355;49.198;-0.368;2024-03-25T04:36:35;10.55;;;2.28;;
49460;SDS011;35355;49.198;-0.368;2024-03-25T04:39:01;9.40;;;2.55;;
49460;SDS011;35355;49.198;-0.368;2024-03-25T04:41:27;10.77;;;2.38;;
49460;SDS011;35355;49.198;-0.368;2024-03-25T04:43:52;6.00;;;1.80;;
49460;SDS011;35355;49.198;-0.368;2024-03-25T04:46:17;7.65;;;1.70;;
49460;SDS011;35355;49.198;-0.368;2024-03-25T04:48:43;10.95;;;3.00;;
49460;SDS011;35355;49.198;-0.368;2024-03-25T04:51:08;13.70;;;2.40;;
49460;SDS011;35355;49.198;-0.368;2024-03-25T04:53:34;7.55;;;1.75;;
49460;SDS011;35355;49.198;-0.368;2024-03-25T04:56:00;8.38;;;2.00;;
49460;SDS011;35355;49.198;-0.368;2024-03-25T04:58:25;7.93;;;2.28;;
49460;SDS011;35355;49.198;-0.368;2024-03-25T05:00:51;12.63;;;1.58;;
49460;SDS011;35355;49.198;-0.368;2024-03-25T05:03:16;14.13;;;1.83;;
49460;SDS011;35355;49.198;-0.368;2024-03-25T05:05:41;10.43;;;1.85;;
49460;SDS011;35355;49.198;-0.368;2024-03-25T05:08:07;16.95;;;2.17;;
49460;SDS011;35355;49.198;-0.368;2024-03-25T05:10:33;8.95;;;1.83;;
49460;SDS011;35355;49.198;-0.368;2024-03-25T05:12:59;6.03;;;2.00;;
49460;SDS011;35355;49.198;-0.368;2024-03-25T05:15:24;9.13;;;1.55;;
49460;SDS011;35355;49.198;-0.368;2024-03-25T05:17:50;13.63;;;1.95;;
49460;SDS011;35355;49.198;-0.368;2024-03-25T05:20:15;15.52;;;1.92;;
49460;SDS011;35355;49.198;-0.368;2024-03-25T05:22:41;13.25;;;2.30;;
49460;SDS011;35355;49.198;-0.368;2024-03-25T05:25:06;13.52;;;2.78;;
49460;SDS011;35355;49.198;-0.368;2024-03-25T05:27:32;8.30;;;1.70;;
49460;SDS011;35355;49.198;-0.368;2024-03-25T05:29:58;9.45;;;1.60;;
49460;SDS011;35355;49.198;-0.368;2024-03-25T05:32:23;7.60;;;1.75;;
49460;SDS011;35355;49.198;-0.368;2024-03-25T05:34:48;6.07;;;1.88;;
49460;SDS011;35355;49.198;-0.368;2024-03-25T05:37:14;11.32;;;1.80;;
49460;SDS011;35355;49.198;-0.368;2024-03-25T05:39:39;8.93;;;2.03;;
49460;SDS011;35355;49.198;-0.368;2024-03-25T05:42:05;9.82;;;2.20;;
49460;SDS011;35355;49.198;-0.368;2024-03-25T05:44:30;7.82;;;1.70;;
49460;SDS011;35355;49.198;-0.368;2024-03-25T05:46:56;8.85;;;2.30;;
49460;SDS011;35355;49.198;-0.368;2024-03-25T05:49:21;10.32;;;1.80;;
49460;SDS011;35355;49.198;-0.368;2024-03-25T05:51:46;11.13;;;2.40;;
49460;SDS011;35355;49.198;-0.368;2024-03-25T05:54:12;11.52;;;2.17;;
49460;SDS011;35355;49.198;-0.368;2024-03-25T05:56:38;9.93;;;2.28;;
49460;SDS011;35355;49.198;-0.368;2024-03-25T05:59:03;9.85;;;2.30;;
49460;SDS011;35355;49.198;-0.368;2024-03-25T06:01:29;11.85;;;1.88;;
49460;SDS011;35355;49.198;-0.368;2024-03-25T06:03:54;3.60;;;1.52;;
49460;SDS011;35355;49.198;-0.368;2024-03-25T06:06:19;9.90;;;2.10;;
49460;SDS011;35355;49.198;-0.368;2024-03-25T06:08:45;12.32;;;1.90;;
49460;SDS011;35355;49.198;-0.368;2024-03-25T06:11:10;8.98;;;1.88;;
49460;SDS011;35355;49.198;-0.368;2024-03-25T06:13:36;8.90;;;2.00;;
49460;SDS011;35355;49.198;-0.368;2024-03-25T06:16:01;7.75;;;2.03;;
49460;SDS011;35355;49.198;-0.368;2024-03-25T06:18:26;9.93;;;2.33;;
49460;SDS011;35355;49.198;-0.368;2024-03-25T06:20:52;9.32;;;2.03;;
49460;SDS011;35355;49.198;-0.368;2024-03-25T06:23:24;10.27;;;2.28;;
49460;SDS011;35355;49.198;-0.368;2024-03-25T06:25:51;11.25;;;2.95;;
49460;SDS011;35355;49.198;-0.368;2024-03-25T06:28:17;15.45;;;2.47;;
49460;SDS011;35355;49.198;-0.368;2024-03-25T06:30:44;17.63;;;3.22;;
49460;SDS011;35355;49.198;-0.368;2024-03-25T06:33:29;5.53;;;1.92;;
49460;SDS011;35355;49.198;-0.368;2024-03-25T06:36:13;8.10;;;2.72;;
49460;SDS011;35355;49.198;-0.368;2024-03-25T06:38:38;14.23;;;2.40;;
49460;SDS011;35355;49.198;-0.368;2024-03-25T06:41:04;11.43;;;1.98;;
49460;SDS011;35355;49.198;-0.368;2024-03-25T06:43:29;10.23;;;2.38;;
49460;SDS011;35355;49.198;-0.368;2024-03-25T06:45:55;10.10;;;1.83;;
49460;SDS011;35355;49.198;-0.368;2024-03-25T06:48:20;8.38;;;1.88;;
49460;SDS011;35355;49.198;-0.368;2024-03-25T06:50:52;8.75;;;2.10;;
49460;SDS011;35355;49.198;-0.368;2024-03-25T06:53:18;10.73;;;1.98;;
49460;SDS011;35355;49.198;-0.368;2024-03-25T06:55:50;6.90;;;2.13;;
49460;SDS011;35355;49.198;-0.368;2024-03-25T06:58:25;11.98;;;2.00;;
49460;SDS011;35355;49.198;-0.368;2024-03-25T07:00:51;11.32;;;2.80;;
49460;SDS011;35355;49.198;-0.368;2024-03-25T07:03:17;7.40;;;1.85;;
49460;SDS011;35355;49.198;-0.368;2024-03-25T07:05:44;12.27;;;2.40;;
49460;SDS011;35355;49.198;-0.368;2024-03-25T07:08:10;13.50;;;2.83;;
49460;SDS011;35355;49.198;-0.368;2024-03-25T07:10:36;11.45;;;2.10;;
49460;SDS011;35355;49.198;-0.368;2024-03-25T07:13:01;8.90;;;2.25;;
49460;SDS011;35355;49.198;-0.368;2024-03-25T07:15:27;7.82;;;2.05;;
49460;SDS011;35355;49.198;-0.368;2024-03-25T07:17:52;9.93;;;2.10;;
49460;SDS011;35355;49.198;-0.368;2024-03-25T07:20:17;9.23;;;1.77;;
49460;SDS011;35355;49.198;-0.368;2024-03-25T07:22:44;8.65;;;2.25;;
49460;SDS011;35355;49.198;-0.368;2024-03-25T07:25:09;11.75;;;2.28;;
49460;SDS011;35355;49.198;-0.368;2024-03-25T07:27:34;8.60;;;1.98;;
49460;SDS011;35355;49.198;-0.368;2024-03-25T07:30:00;9.65;;;3.00;;
49460;SDS011;35355;49.198;-0.368;2024-03-25T07:32:25;9.18;;;2.92;;
49460;SDS011;35355;49.198;-0.368;2024-03-25T07:34:50;8.25;;;1.67;;
49460;SDS011;35355;49.198;-0.368;2024-03-25T07:37:16;9.65;;;2.13;;
49460;SDS011;35355;49.198;-0.368;2024-03-25T07:39:42;11.50;;;2.08;;
49460;SDS011;35355;49.198;-0.368;2024-03-25T07:42:07;15.10;;;2.00;;
49460;SDS011;35355;49.198;-0.368;2024-03-25T07:44:33;10.98;;;1.67;;
49460;SDS011;35355;49.198;-0.368;2024-03-25T07:46:58;8.10;;;1.55;;
49460;SDS011;35355;49.198;-0.368;2024-03-25T07:49:24;12.98;;;1.52;;
49460;SDS011;35355;49.198;-0.368;2024-03-25T07:51:49;9.38;;;1.65;;
49460;SDS011;35355;49.198;-0.368;2024-03-25T07:54:14;14.57;;;2.78;;
49460;SDS011;35355;49.198;-0.368;2024-03-25T07:56:41;9.95;;;1.30;;
49460;SDS011;35355;49.198;-0.368;2024-03-25T07:59:07;7.88;;;1.15;;
49460;SDS011;35355;49.198;-0.368;2024-03-25T08:01:32;12.90;;;2.38;;
49460;SDS011;35355;49.198;-0.368;2024-03-25T08:03:58;13.20;;;1.92;;
49460;SDS011;35355;49.198;-0.368;2024-03-25T08:06:23;9.80;;;1.80;;
49460;SDS011;35355;49.198;-0.368;2024-03-25T08:08:48;8.27;;;1.27;;
49460;SDS011;35355;49.198;-0.368;2024-03-25T08:11:14;11.25;;;1.75;;
49460;SDS011;35355;49.198;-0.368;2024-03-25T08:13:39;8.82;;;2.30;;
49460;SDS011;35355;49.198;-0.368;2024-03-25T08:16:04;10.63;;;1.50;;
49460;SDS011;35355;49.198;-0.368;2024-03-25T08:18:30;9.77;;;1.83;;
49460;SDS011;35355;49.198;-0.368;2024-03-25T08:20:55;8.55;;;1.20;;
49460;SDS011;35355;49.198;-0.368;2024-03-25T08:23:20;7.38;;;1.55;;
49460;SDS011;35355;49.198;-0.368;2024-03-25T08:25:46;4.75;;;1.02;;
49460;SDS011;35355;49.198;-0.368;2024-03-25T08:28:11;7.68;;;1.25;;
49460;SDS011;35355;49.198;-0.368;2024-03-25T08:30:37;13.05;;;2.03;;
49460;SDS011;35355;49.198;-0.368;2024-03-25T08:33:02;8.18;;;1.50;;
49460;SDS011;35355;49.198;-0.368;2024-03-25T08:35:27;11.48;;;2.05;;
49460;SDS011;35355;49.198;-0.368;2024-03-25T08:37:53;6.75;;;1.90;;
49460;SDS011;35355;49.198;-0.368;2024-03-25T08:40:18;11.90;;;2.00;;
49460;SDS011;35355;49.198;-0.368;2024-03-25T08:42:43;12.30;;;1.10;;
49460;SDS011;35355;49.198;-0.368;2024-03-25T08:45:09;7.65;;;1.17;;
49460;SDS011;35355;49.198;-0.368;2024-03-25T08:47:35;10.40;;;1.52;;
49460;SDS011;35355;49.198;-0.368;2024-03-25T08:50:00;9.27;;;1.40;;
49460;SDS011;35355;49.198;-0.368;2024-03-25T08:52:25;9.95;;;1.90;;
49460;SDS011;35355;49.198;-0.368;2024-03-25T08:54:51;7.72;;;1.58;;
49460;SDS011;35355;49.198;-0.368;2024-03-25T08:57:16;8.65;;;1.50;;
49460;SDS011;35355;49.198;-0.368;2024-03-25T08:59:41;6.90;;;1.05;;
49460;SDS011;35355;49.198;-0.368;2024-03-25T09:02:07;8.80;;;1.58;;
49460;SDS011;35355;49.198;-0.368;2024-03-25T09:04:33;8.13;;;1.77;;
49460;SDS011;35355;49.198;-0.368;2024-03-25T09:06:59;5.90;;;1.55;;
49460;SDS011;35355;49.198;-0.368;2024-03-25T09:09:24;10.38;;;1.77;;
49460;SDS011;35355;49.198;-0.368;2024-03-25T09:12:08;7.95;;;1.35;;
49460;SDS011;35355;49.198;-0.368;2024-03-25T09:14:33;8.40;;;1.27;;
49460;SDS011;35355;49.198;-0.368;2024-03-25T09:16:59;7.25;;;1.15;;
49460;SDS011;35355;49.198;-0.368;2024-03-25T09:19:24;10.02;;;1.58;;
49460;SDS011;35355;49.198;-0.368;2024-03-25T09:21:50;8.50;;;1.50;;
49460;SDS011;35355;49.198;-0.368;2024-03-25T09:24:15;10.20;;;1.48;;
49460;SDS011;35355;49.198;-0.368;2024-03-25T09:26:42;3.85;;;1.00;;
49460;SDS011;35355;49.198;-0.368;2024-03-25T09:29:08;8.65;;;1.38;;
49460;SDS011;35355;49.198;-0.368;2024-03-25T09:31:33;4.10;;;0.98;;
49460;SDS011;35355;49.198;-0.368;2024-03-25T09:33:58;7.93;;;1.60;;
49460;SDS011;35355;49.198;-0.368;2024-03-25T09:36:23;9.35;;;1.20;;
49460;SDS011;35355;49.198;-0.368;2024-03-25T09:38:49;7.63;;;1.63;;
49460;SDS011;35355;49.198;-0.368;2024-03-25T09:41:16;10.52;;;1.67;;
49460;SDS011;35355;49.198;-0.368;2024-03-25T09:43:47;6.28;;;1.25;;
49460;SDS011;35355;49.198;-0.368;2024-03-25T09:46:15;11.93;;;1.52;;
49460;SDS011;35355;49.198;-0.368;2024-03-25T09:48:41;9.07;;;0.90;;
49460;SDS011;35355;49.198;-0.368;2024-03-25T09:51:07;6.60;;;0.88;;
49460;SDS011;35355;49.198;-0.368;2024-03-25T09:53:32;11.88;;;1.25;;
49460;SDS011;35355;49.198;-0.368;2024-03-25T09:55:57;6.78;;;1.35;;
49460;SDS011;35355;49.198;-0.368;2024-03-25T09:58:24;6.85;;;1.42;;
49460;SDS011;35355;49.198;-0.368;2024-03-25T10:00:50;8.38;;;1.00;;
49460;SDS011;35355;49.198;-0.368;2024-03-25T10:03:16;6.30;;;1.00;;
49460;SDS011;35355;49.198;-0.368;2024-03-25T10:05:41;6.78;;;1.17;;
49460;SDS011;35355;49.198;-0.368;2024-03-25T10:08:06;7.15;;;1.52;;
49460;SDS011;35355;49.198;-0.368;2024-03-25T10:10:35;8.68;;;2.67;;
49460;SDS011;35355;49.198;-0.368;2024-03-25T10:13:02;5.30;;;1.17;;
49460;SDS011;35355;49.198;-0.368;2024-03-25T10:15:31;8.80;;;1.45;;
49460;SDS011;35355;49.198;-0.368;2024-03-25T10:17:57;7.78;;;1.20;;
49460;SDS011;35355;49.198;-0.368;2024-03-25T10:20:23;7.25;;;1.40;;
49460;SDS011;35355;49.198;-0.368;2024-03-25T10:22:49;6.63;;;1.13;;
49460;SDS011;35355;49.198;-0.368;2024-03-25T10:25:25;3.95;;;1.00;;
49460;SDS011;35355;49.198;-0.368;2024-03-25T10:27:52;9.30;;;1.55;;
49460;SDS011;35355;49.198;-0.368;2024-03-25T10:30:21;6.18;;;1.50;;
49460;SDS011;35355;49.198;-0.368;2024-03-25T10:32:56;19.63;;;1.30;;
49460;SDS011;35355;49.198;-0.368;2024-03-25T10:35:23;5.43;;;1.50;;
49460;SDS011;35355;49.198;-0.368;2024-03-25T10:37:57;11.48;;;1.75;;
49460;SDS011;35355;49.198;-0.368;2024-03-25T10:40:26;7.90;;;1.45;;
49460;SDS011;35355;49.198;-0.368;2024-03-25T10:43:06;8.75;;;1.80;;
49460;SDS011;35355;49.198;-0.368;2024-03-25T10:45:40;10.45;;;1.70;;
49460;SDS011;35355;49.198;-0.368;2024-03-25T10:50:49;9.77;;;1.40;;
49460;SDS011;35355;49.198;-0.368;2024-03-25T10:53:17;7.82;;;1.27;;
49460;SDS011;35355;49.198;-0.368;2024-03-25T10:55:44;5.55;;;1.27;;
49460;SDS011;35355;49.198;-0.368;2024-03-25T10:58:13;7.75;;;1.88;;
49460;SDS011;35355;49.198;-0.368;2024-03-25T11:00:40;3.97;;;0.90;;
49460;SDS011;35355;49.198;-0.368;2024-03-25T11:03:07;4.05;;;0.88;;
49460;SDS011;35355;49.198;-0.368;2024-03-25T11:05:33;6.53;;;1.63;;
49460;SDS011;35355;49.198;-0.368;2024-03-25T11:08:09;7.53;;;0.98;;
49460;SDS011;35355;49.198;-0.368;2024-03-25T11:10:40;2.65;;;0.63;;
49460;SDS011;35355;49.198;-0.368;2024-03-25T11:13:19;4.43;;;1.15;;
49460;SDS011;35355;49.198;-0.368;2024-03-25T11:15:45;7.43;;;1.23;;
49460;SDS011;35355;49.198;-0.368;2024-03-25T11:18:33;5.55;;;0.93;;
49460;SDS011;35355;49.198;-0.368;2024-03-25T11:21:02;5.65;;;0.68;;
49460;SDS011;35355;49.198;-0.368;2024-03-25T11:23:35;4.55;;;1.00;;
49460;SDS011;35355;49.198;-0.368;2024-03-25T11:26:01;5.28;;;1.35;;
49460;SDS011;35355;49.198;-0.368;2024-03-25T11:28:29;5.25;;;1.00;;
49460;SDS011;35355;49.198;-0.368;2024-03-25T11:30:55;11.50;;;1.77;;
49460;SDS011;35355;49.198;-0.368;2024-03-25T11:33:21;6.05;;;0.90;;
49460;SDS011;35355;49.198;-0.368;2024-03-25T11:35:47;6.03;;;1.92;;
49460;SDS011;35355;49.198;-0.368;2024-03-25T11:38:14;5.38;;;0.68;;
49460;SDS011;35355;49.198;-0.368;2024-03-25T11:40:41;7.63;;;1.45;;
49460;SDS011;35355;49.198;-0.368;2024-03-25T11:43:08;5.93;;;0.88;;
49460;SDS011;35355;49.198;-0.368;2024-03-25T11:45:34;3.15;;;0.70;;
49460;SDS011;35355;49.198;-0.368;2024-03-25T11:48:00;8.82;;;1.55;;
49460;SDS011;35355;49.198;-0.368;2024-03-25T11:50:25;5.95;;;0.63;;
49460;SDS011;35355;49.198;-0.368;2024-03-25T11:52:50;4.95;;;0.57;;
49460;SDS011;35355;49.198;-0.368;2024-03-25T11:55:16;4.90;;;0.73;;
49460;SDS011;35355;49.198;-0.368;2024-03-25T11:57:42;5.68;;;0.80;;
49460;SDS011;35355;49.198;-0.368;2024-03-25T12:00:08;6.63;;;0.77;;
49460;SDS011;35355;49.198;-0.368;2024-03-25T12:02:42;7.63;;;0.80;;
49460;SDS011;35355;49.198;-0.368;2024-03-25T12:05:08;3.50;;;0.85;;
49460;SDS011;35355;49.198;-0.368;2024-03-25T12:07:34;4.50;;;1.33;;
49460;SDS011;35355;49.198;-0.368;2024-03-25T12:10:00;3.42;;;0.60;;
49460;SDS011;35355;49.198;-0.368;2024-03-25T12:12:45;4.55;;;0.80;;
49460;SDS011;35355;49.198;-0.368;2024-03-25T12:15:10;5.97;;;0.70;;
49460;SDS011;35355;49.198;-0.368;2024-03-25T12:17:36;3.75;;;0.52;;
49460;SDS011;35355;49.198;-0.368;2024-03-25T12:20:03;4.38;;;0.60;;
49460;SDS011;35355;49.198;-0.368;2024-03-25T12:22:30;6.18;;;0.68;;
49460;SDS011;35355;49.198;-0.368;2024-03-25T12:24:59;6.05;;;0.90;;
49460;SDS011;35355;49.198;-0.368;2024-03-25T12:27:27;3.97;;;0.65;;
49460;SDS011;35355;49.198;-0.368;2024-03-25T12:30:04;3.90;;;1.05;;
49460;SDS011;35355;49.198;-0.368;2024-03-25T12:32:32;3.10;;;0.50;;
49460;SDS011;35355;49.198;-0.368;2024-03-25T12:35:08;5.25;;;0.70;;
49460;SDS011;35355;49.198;-0.368;2024-03-25T12:37:34;3.72;;;0.70;;
49460;SDS011;35355;49.198;-0.368;2024-03-25T12:40:01;3.17;;;0.55;;
49460;SDS011;35355;49.198;-0.368;2024-03-25T12:42:27;4.50;;;0.65;;
49460;SDS011;35355;49.198;-0.368;2024-03-25T12:44:53;3.40;;;0.40;;
49460;SDS011;35355;49.198;-0.368;2024-03-25T12:47:19;6.70;;;0.55;;
49460;SDS011;35355;49.198;-0.368;2024-03-25T12:49:45;4.88;;;0.85;;
49460;SDS011;35355;49.198;-0.368;2024-03-25T12:52:11;1.60;;;0.32;;
49460;SDS011;35355;49.198;-0.368;2024-03-25T12:54:36;8.95;;;0.65;;
49460;SDS011;35355;49.198;-0.368;2024-03-25T12:57:02;2.97;;;0.50;;
49460;SDS011;35355;49.198;-0.368;2024-03-25T12:59:27;5.68;;;0.57;;
49460;SDS011;35355;49.198;-0.368;2024-03-25T13:01:53;4.63;;;0.63;;
49460;SDS011;35355;49.198;-0.368;2024-03-25T13:04:18;2.45;;;0.40;;
49460;SDS011;35355;49.198;-0.368;2024-03-25T13:06:44;6.45;;;0.68;;
49460;SDS011;35355;49.198;-0.368;2024-03-25T13:09:09;6.40;;;0.70;;
49460;SDS011;35355;49.198;-0.368;2024-03-25T13:11:35;5.55;;;1.63;;
49460;SDS011;35355;49.198;-0.368;2024-03-25T13:14:01;2.85;;;0.43;;
49460;SDS011;35355;49.198;-0.368;2024-03-25T13:16:28;4.75;;;0.70;;
49460;SDS011;35355;49.198;-0.368;2024-03-25T13:18:54;2.63;;;0.60;;
49460;SDS011;35355;49.198;-0.368;2024-03-25T13:21:19;4.55;;;0.60;;
49460;SDS011;35355;49.198;-0.368;2024-03-25T13:23:45;5.97;;;0.60;;
49460;SDS011;35355;49.198;-0.368;2024-03-25T13:26:10;3.30;;;0.40;;
49460;SDS011;35355;49.198;-0.368;2024-03-25T13:28:35;5.03;;;0.95;;
49460;SDS011;35355;49.198;-0.368;2024-03-25T13:31:01;4.97;;;0.90;;
49460;SDS011;35355;49.198;-0.368;2024-03-25T13:33:26;10.68;;;0.80;;
49460;SDS011;35355;49.198;-0.368;2024-03-25T13:35:51;7.35;;;1.65;;
49460;SDS011;35355;49.198;-0.368;2024-03-25T13:38:17;4.40;;;0.55;;
49460;SDS011;35355;49.198;-0.368;2024-03-25T13:40:42;3.72;;;0.60;;
49460;SDS011;35355;49.198;-0.368;2024-03-25T13:43:07;3.80;;;0.98;;
49460;SDS011;35355;49.198;-0.368;2024-03-25T13:45:34;4.18;;;0.70;;
49460;SDS011;35355;49.198;-0.368;2024-03-25T13:47:59;10.07;;;0.88;;
49460;SDS011;35355;49.198;-0.368;2024-03-25T13:50:25;6.72;;;0.80;;
49460;SDS011;35355;49.198;-0.368;2024-03-25T13:52:50;4.72;;;0.73;;
49460;SDS011;35355;49.198;-0.368;2024-03-25T13:55:15;2.72;;;0.60;;
49460;SDS011;35355;49.198;-0.368;2024-03-25T13:57:41;4.40;;;0.50;;
49460;SDS011;35355;49.198;-0.368;2024-03-25T14:00:06;8.82;;;0.80;;
49460;SDS011;35355;49.198;-0.368;2024-03-25T14:02:35;2.20;;;0.50;;
49460;SDS011;35355;49.198;-0.368;2024-03-25T14:05:02;4.03;;;1.42;;
49460;SDS011;35355;49.198;-0.368;2024-03-25T14:07:28;3.00;;;0.47;;
49460;SDS011;35355;49.198;-0.368;2024-03-25T14:09:53;7.55;;;0.88;;
49460;SDS011;35355;49.198;-0.368;2024-03-25T14:12:18;3.70;;;0.73;;
49460;SDS011;35355;49.198;-0.368;2024-03-25T14:14:44;3.08;;;1.65;;
49460;SDS011;35355;49.198;-0.368;2024-03-25T14:17:09;7.85;;;0.70;;
49460;SDS011;35355;49.198;-0.368;2024-03-25T14:19:34;8.63;;;1.85;;
49460;SDS011;35355;49.198;-0.368;2024-03-25T14:22:00;5.07;;;0.50;;
49460;SDS011;35355;49.198;-0.368;2024-03-25T14:24:25;5.80;;;0.60;;
49460;SDS011;35355;49.198;-0.368;2024-03-25T14:26:51;3.45;;;1.00;;